LFBG/CNG METAR and TAF weather

Enter ICAO airport designator
Station Type Date Time Source
LFBG METAR 2019/08/24 07:00 UTC NOAA

LFBG 240700Z AUTO VRB02KT CAVOK 19/12 Q1017


Station Type Date Time Source
LFBG Decoded METAR 2019/08/24 07:00 UTC NOAA

Station name not available
Aug 24, 2019 - 03:00 AM EDT / 2019.08.24 0700 UTC
Wind: Variable at 2 MPH (2 KT):0
Visibility: greater than 7 mile(s):0
Temperature: 66 F (19 C)
Dew Point: 53 F (12 C)
Relative Humidity: 63%
Pressure (altimeter): 30.03 in. Hg (1017 hPa)
ob: LFBG 240700Z AUTO VRB02KT CAVOK 19/12 Q1017
cycle: 7

Station Type Date Time Source
LFBG TAF 2019/08/23 15:22 UTC NOAA

TAF LFBG 231515Z 2315/2409 CNL

Example: see airport list